sensor_id;sensor_type;location;lat;lon;timestamp;pressure;altitude;pressure_sealevel;temperature;humidity
12077;BME280;12420;42.676;23.262;2022-08-27T00:01:22;94234.47;;;19.89;95.10
12077;BME280;12420;42.676;23.262;2022-08-27T00:03:49;94230.06;;;19.86;95.37
12077;BME280;12420;42.676;23.262;2022-08-27T00:06:17;94239.97;;;19.87;94.17
12077;BME280;12420;42.676;23.262;2022-08-27T00:08:46;94229.03;;;19.82;93.29
12077;BME280;12420;42.676;23.262;2022-08-27T00:11:16;94231.56;;;19.87;92.10
12077;BME280;12420;42.676;23.262;2022-08-27T00:13:44;94227.88;;;19.85;93.31
12077;BME280;12420;42.676;23.262;2022-08-27T00:16:13;94232.53;;;19.92;91.96
12077;BME280;12420;42.676;23.262;2022-08-27T00:18:43;94226.19;;;19.91;92.41
12077;BME280;12420;42.676;23.262;2022-08-27T00:21:10;94229.63;;;19.90;92.05
12077;BME280;12420;42.676;23.262;2022-08-27T00:23:37;94171.09;;;19.55;92.76
12077;BME280;12420;42.676;23.262;2022-08-27T00:26:05;94220.38;;;19.99;89.75
12077;BME280;12420;42.676;23.262;2022-08-27T00:28:33;94221.13;;;20.00;91.05
12077;BME280;12420;42.676;23.262;2022-08-27T00:31:00;94236.91;;;20.05;90.64
12077;BME280;12420;42.676;23.262;2022-08-27T00:33:27;94191.22;;;19.83;89.82
12077;BME280;12420;42.676;23.262;2022-08-27T00:35:56;94210.81;;;19.92;91.70
12077;BME280;12420;42.676;23.262;2022-08-27T00:38:23;94198.09;;;19.91;90.89
12077;BME280;12420;42.676;23.262;2022-08-27T00:40:53;94200.50;;;19.85;90.13
12077;BME280;12420;42.676;23.262;2022-08-27T00:43:25;94223.88;;;20.09;90.36
12077;BME280;12420;42.676;23.262;2022-08-27T00:45:55;94227.69;;;20.14;91.91
12077;BME280;12420;42.676;23.262;2022-08-27T00:48:27;94216.25;;;20.00;91.75
12077;BME280;12420;42.676;23.262;2022-08-27T00:50:57;94235.44;;;20.04;91.81
12077;BME280;12420;42.676;23.262;2022-08-27T00:53:28;94197.84;;;19.87;90.95
12077;BME280;12420;42.676;23.262;2022-08-27T00:56:04;94232.91;;;20.08;90.02
12077;BME280;12420;42.676;23.262;2022-08-27T00:58:34;94226.53;;;20.07;89.70
12077;BME280;12420;42.676;23.262;2022-08-27T01:01:04;94220.47;;;20.11;91.50
12077;BME280;12420;42.676;23.262;2022-08-27T01:03:31;94207.88;;;19.90;92.06
12077;BME280;12420;42.676;23.262;2022-08-27T01:06:01;94220.84;;;19.95;93.63
12077;BME280;12420;42.676;23.262;2022-08-27T01:08:33;94235.81;;;19.88;94.17
12077;BME280;12420;42.676;23.262;2022-08-27T01:11:02;94175.84;;;19.52;94.03
12077;BME280;12420;42.676;23.262;2022-08-27T01:13:31;94224.91;;;19.83;95.00
12077;BME280;12420;42.676;23.262;2022-08-27T01:15:59;94192.16;;;19.66;93.97
12077;BME280;12420;42.676;23.262;2022-08-27T01:18:26;94222.50;;;19.89;94.76
12077;BME280;12420;42.676;23.262;2022-08-27T01:20:56;94212.75;;;19.90;93.56
12077;BME280;12420;42.676;23.262;2022-08-27T01:23:36;94190.09;;;19.66;94.78
12077;BME280;12420;42.676;23.262;2022-08-27T01:26:09;94201.94;;;19.65;94.76
12077;BME280;12420;42.676;23.262;2022-08-27T01:28:42;94204.44;;;19.61;94.65
12077;BME280;12420;42.676;23.262;2022-08-27T01:31:10;94223.03;;;19.76;94.53
12077;BME280;12420;42.676;23.262;2022-08-27T01:33:38;94219.63;;;19.77;93.42
12077;BME280;12420;42.676;23.262;2022-08-27T01:36:06;94227.78;;;19.73;93.38
12077;BME280;12420;42.676;23.262;2022-08-27T01:38:32;94222.44;;;19.77;94.43
12077;BME280;12420;42.676;23.262;2022-08-27T01:41:00;94225.44;;;19.60;95.45
12077;BME280;12420;42.676;23.262;2022-08-27T01:43:28;94197.72;;;19.44;96.50
12077;BME280;12420;42.676;23.262;2022-08-27T01:45:55;94222.50;;;19.58;97.21
12077;BME280;12420;42.676;23.262;2022-08-27T01:48:23;94203.94;;;19.43;97.69
12077;BME280;12420;42.676;23.262;2022-08-27T01:50:50;94234.19;;;19.54;97.91
12077;BME280;12420;42.676;23.262;2022-08-27T01:53:19;94230.94;;;19.48;97.64
12077;BME280;12420;42.676;23.262;2022-08-27T01:55:47;94231.56;;;19.46;97.42
12077;BME280;12420;42.676;23.262;2022-08-27T01:58:20;94228.78;;;19.37;99.33
12077;BME280;12420;42.676;23.262;2022-08-27T02:00:55;94220.94;;;19.35;100.00
12077;BME280;12420;42.676;23.262;2022-08-27T02:03:23;94221.75;;;19.26;100.00
12077;BME280;12420;42.676;23.262;2022-08-27T02:05:51;94226.75;;;19.18;100.00
12077;BME280;12420;42.676;23.262;2022-08-27T02:08:22;94230.47;;;19.11;100.00
12077;BME280;12420;42.676;23.262;2022-08-27T02:10:49;94229.63;;;18.98;100.00
12077;BME280;12420;42.676;23.262;2022-08-27T02:13:16;94211.03;;;18.74;100.00
12077;BME280;12420;42.676;23.262;2022-08-27T02:15:44;94235.56;;;18.83;100.00
12077;BME280;12420;42.676;23.262;2022-08-27T02:18:13;94233.31;;;18.72;100.00
12077;BME280;12420;42.676;23.262;2022-08-27T02:20:40;94224.31;;;18.63;100.00
12077;BME280;12420;42.676;23.262;2022-08-27T02:23:08;94226.81;;;18.69;100.00
12077;BME280;12420;42.676;23.262;2022-08-27T02:25:35;94210.91;;;18.52;100.00
12077;BME280;12420;42.676;23.262;2022-08-27T02:28:05;94203.81;;;18.51;100.00
12077;BME280;12420;42.676;23.262;2022-08-27T02:30:33;94237.72;;;18.75;100.00
12077;BME280;12420;42.676;23.262;2022-08-27T02:33:13;94231.38;;;18.74;100.00
12077;BME280;12420;42.676;23.262;2022-08-27T02:35:42;94228.47;;;18.53;100.00
12077;BME280;12420;42.676;23.262;2022-08-27T02:38:15;94242.63;;;18.45;100.00
12077;BME280;12420;42.676;23.262;2022-08-27T02:40:45;94240.72;;;18.48;100.00
12077;BME280;12420;42.676;23.262;2022-08-27T02:43:29;94219.00;;;18.29;100.00
12077;BME280;12420;42.676;23.262;2022-08-27T02:45:56;94251.75;;;18.46;100.00
12077;BME280;12420;42.676;23.262;2022-08-27T02:48:34;94248.50;;;18.49;100.00
12077;BME280;12420;42.676;23.262;2022-08-27T02:51:11;94255.88;;;18.54;100.00
12077;BME280;12420;42.676;23.262;2022-08-27T02:53:38;94246.72;;;18.44;100.00
12077;BME280;12420;42.676;23.262;2022-08-27T02:56:06;94253.50;;;18.31;100.00
12077;BME280;12420;42.676;23.262;2022-08-27T02:58:35;94246.88;;;18.27;100.00
12077;BME280;12420;42.676;23.262;2022-08-27T03:01:02;94257.19;;;18.34;100.00
12077;BME280;12420;42.676;23.262;2022-08-27T03:03:33;94258.97;;;18.49;100.00
12077;BME280;12420;42.676;23.262;2022-08-27T03:06:03;94253.53;;;18.51;100.00
12077;BME280;12420;42.676;23.262;2022-08-27T03:08:29;94256.03;;;18.56;100.00
12077;BME280;12420;42.676;23.262;2022-08-27T03:10:56;94222.69;;;18.21;100.00
12077;BME280;12420;42.676;23.262;2022-08-27T03:13:23;94265.47;;;18.51;100.00
12077;BME280;12420;42.676;23.262;2022-08-27T03:15:51;94257.94;;;18.44;100.00
12077;BME280;12420;42.676;23.262;2022-08-27T03:18:19;94262.97;;;18.36;100.00
12077;BME280;12420;42.676;23.262;2022-08-27T03:20:48;94261.75;;;18.29;100.00
12077;BME280;12420;42.676;23.262;2022-08-27T03:23:16;94255.53;;;18.11;100.00
12077;BME280;12420;42.676;23.262;2022-08-27T03:25:45;94274.28;;;18.18;100.00
12077;BME280;12420;42.676;23.262;2022-08-27T03:28:15;94265.13;;;18.08;100.00
12077;BME280;12420;42.676;23.262;2022-08-27T03:30:42;94257.75;;;18.03;100.00
12077;BME280;12420;42.676;23.262;2022-08-27T03:33:15;94257.16;;;18.05;100.00
12077;BME280;12420;42.676;23.262;2022-08-27T03:35:47;94271.75;;;18.13;100.00
12077;BME280;12420;42.676;23.262;2022-08-27T03:38:14;94267.94;;;18.18;100.00
12077;BME280;12420;42.676;23.262;2022-08-27T03:40:42;94273.25;;;18.23;100.00
12077;BME280;12420;42.676;23.262;2022-08-27T03:43:11;94245.50;;;18.08;100.00
12077;BME280;12420;42.676;23.262;2022-08-27T03:45:41;94263.53;;;18.25;100.00
12077;BME280;12420;42.676;23.262;2022-08-27T03:48:11;94258.06;;;18.27;100.00
12077;BME280;12420;42.676;23.262;2022-08-27T03:50:40;94271.81;;;18.42;100.00
12077;BME280;12420;42.676;23.262;2022-08-27T03:53:10;94277.28;;;18.40;100.00
12077;BME280;12420;42.676;23.262;2022-08-27T03:55:40;94275.34;;;18.42;100.00
12077;BME280;12420;42.676;23.262;2022-08-27T03:58:10;94282.25;;;18.32;100.00
12077;BME280;12420;42.676;23.262;2022-08-27T04:00:40;94274.88;;;18.17;100.00
12077;BME280;12420;42.676;23.262;2022-08-27T04:03:10;94264.97;;;17.96;100.00
12077;BME280;12420;42.676;23.262;2022-08-27T04:05:37;94289.91;;;18.21;100.00
12077;BME280;12420;42.676;23.262;2022-08-27T04:08:06;94288.88;;;18.17;100.00
12077;BME280;12420;42.676;23.262;2022-08-27T04:10:35;94284.19;;;18.19;100.00
12077;BME280;12420;42.676;23.262;2022-08-27T04:13:05;94288.59;;;18.22;100.00
12077;BME280;12420;42.676;23.262;2022-08-27T04:15:32;94291.72;;;18.36;100.00
12077;BME280;12420;42.676;23.262;2022-08-27T04:17:58;94289.66;;;18.37;100.00
12077;BME280;12420;42.676;23.262;2022-08-27T04:20:25;94274.44;;;18.20;100.00
12077;BME280;12420;42.676;23.262;2022-08-27T04:22:53;94300.56;;;18.33;100.00
12077;BME280;12420;42.676;23.262;2022-08-27T04:25:20;94291.44;;;18.42;100.00
12077;BME280;12420;42.676;23.262;2022-08-27T04:27:54;94298.22;;;18.58;100.00
12077;BME280;12420;42.676;23.262;2022-08-27T04:30:24;94299.28;;;18.73;100.00
12077;BME280;12420;42.676;23.262;2022-08-27T04:32:51;94307.09;;;18.74;100.00
12077;BME280;12420;42.676;23.262;2022-08-27T04:35:23;94293.94;;;18.67;100.00
12077;BME280;12420;42.676;23.262;2022-08-27T04:37:52;94292.19;;;18.72;100.00
12077;BME280;12420;42.676;23.262;2022-08-27T04:40:25;94302.84;;;18.83;100.00
12077;BME280;12420;42.676;23.262;2022-08-27T04:43:13;94301.94;;;18.90;100.00
12077;BME280;12420;42.676;23.262;2022-08-27T04:45:44;94272.72;;;18.74;100.00
12077;BME280;12420;42.676;23.262;2022-08-27T04:48:11;94297.22;;;18.93;100.00
12077;BME280;12420;42.676;23.262;2022-08-27T04:50:41;94307.09;;;19.13;100.00
12077;BME280;12420;42.676;23.262;2022-08-27T04:53:15;94302.78;;;19.32;100.00
12077;BME280;12420;42.676;23.262;2022-08-27T04:55:47;94302.84;;;19.63;100.00
12077;BME280;12420;42.676;23.262;2022-08-27T04:58:17;94307.44;;;19.68;100.00
12077;BME280;12420;42.676;23.262;2022-08-27T05:00:46;94317.16;;;19.77;100.00
12077;BME280;12420;42.676;23.262;2022-08-27T05:03:14;94353.19;;;19.90;100.00
12077;BME280;12420;42.676;23.262;2022-08-27T05:05:41;94316.00;;;20.11;100.00
12077;BME280;12420;42.676;23.262;2022-08-27T05:08:08;94311.06;;;20.21;100.00
12077;BME280;12420;42.676;23.262;2022-08-27T05:10:38;94278.13;;;20.12;100.00
12077;BME280;12420;42.676;23.262;2022-08-27T05:13:05;94324.16;;;20.59;100.00
12077;BME280;12420;42.676;23.262;2022-08-27T05:15:34;94328.19;;;20.78;98.24
12077;BME280;12420;42.676;23.262;2022-08-27T05:18:01;94303.75;;;20.59;99.13
12077;BME280;12420;42.676;23.262;2022-08-27T05:20:29;94321.00;;;20.65;97.62
12077;BME280;12420;42.676;23.262;2022-08-27T05:22:56;94325.16;;;20.86;98.31
12077;BME280;12420;42.676;23.262;2022-08-27T05:25:25;94334.41;;;20.98;96.45
12077;BME280;12420;42.676;23.262;2022-08-27T05:28:04;94336.13;;;21.03;94.66
12077;BME280;12420;42.676;23.262;2022-08-27T05:30:35;94333.97;;;21.13;94.58
12077;BME280;12420;42.676;23.262;2022-08-27T05:33:06;94332.75;;;21.16;92.83
12077;BME280;12420;42.676;23.262;2022-08-27T05:35:39;94323.00;;;21.17;94.04
12077;BME280;12420;42.676;23.262;2022-08-27T05:38:06;94309.06;;;21.19;91.79
12077;BME280;12420;42.676;23.262;2022-08-27T05:40:33;94329.78;;;21.36;92.00
12077;BME280;12420;42.676;23.262;2022-08-27T05:43:00;94338.16;;;21.45;90.80
12077;BME280;12420;42.676;23.262;2022-08-27T05:45:27;94330.38;;;21.34;91.02
12077;BME280;12420;42.676;23.262;2022-08-27T05:47:55;94310.16;;;20.93;91.78
12077;BME280;12420;42.676;23.262;2022-08-27T05:50:24;94326.03;;;21.21;93.13
12077;BME280;12420;42.676;23.262;2022-08-27T05:52:51;94303.94;;;21.28;91.16
12077;BME280;12420;42.676;23.262;2022-08-27T05:55:18;94319.69;;;21.54;90.55
12077;BME280;12420;42.676;23.262;2022-08-27T05:57:45;94345.47;;;21.84;91.06
12077;BME280;12420;42.676;23.262;2022-08-27T06:00:12;94349.41;;;22.02;89.71
12077;BME280;12420;42.676;23.262;2022-08-27T06:02:58;94337.28;;;22.11;87.61
12077;BME280;12420;42.676;23.262;2022-08-27T06:05:25;94321.94;;;22.03;88.24
12077;BME280;12420;42.676;23.262;2022-08-27T06:07:52;94351.41;;;22.35;83.76
12077;BME280;12420;42.676;23.262;2022-08-27T06:10:21;94333.97;;;22.39;84.85
12077;BME280;12420;42.676;23.262;2022-08-27T06:12:48;94351.50;;;22.49;85.30
12077;BME280;12420;42.676;23.262;2022-08-27T06:15:15;94354.19;;;22.59;83.91
12077;BME280;12420;42.676;23.262;2022-08-27T06:17:43;94360.47;;;22.57;81.68
12077;BME280;12420;42.676;23.262;2022-08-27T06:20:12;94350.53;;;22.56;80.65
12077;BME280;12420;42.676;23.262;2022-08-27T06:22:41;94363.84;;;22.79;80.66
12077;BME280;12420;42.676;23.262;2022-08-27T06:25:09;94358.69;;;22.87;79.43
12077;BME280;12420;42.676;23.262;2022-08-27T06:27:41;94357.81;;;22.96;78.14
12077;BME280;12420;42.676;23.262;2022-08-27T06:30:09;94345.31;;;23.00;76.77
12077;BME280;12420;42.676;23.262;2022-08-27T06:32:36;94356.69;;;23.13;77.84
12077;BME280;12420;42.676;23.262;2022-08-27T06:35:04;94363.91;;;23.16;76.60
12077;BME280;12420;42.676;23.262;2022-08-27T06:37:35;94356.63;;;23.25;75.97
12077;BME280;12420;42.676;23.262;2022-08-27T06:40:02;94356.06;;;23.40;73.69
12077;BME280;12420;42.676;23.262;2022-08-27T06:42:31;94360.44;;;23.55;74.11
12077;BME280;12420;42.676;23.262;2022-08-27T06:45:05;94363.09;;;23.65;71.45
12077;BME280;12420;42.676;23.262;2022-08-27T06:47:34;94361.81;;;23.80;69.94
12077;BME280;12420;42.676;23.262;2022-08-27T06:50:07;94357.84;;;23.85;70.54
12077;BME280;12420;42.676;23.262;2022-08-27T06:52:36;94337.47;;;23.87;70.51
12077;BME280;12420;42.676;23.262;2022-08-27T06:55:07;94349.75;;;24.05;69.11
12077;BME280;12420;42.676;23.262;2022-08-27T06:57:35;94343.91;;;24.15;67.80
12077;BME280;12420;42.676;23.262;2022-08-27T07:00:04;94356.59;;;24.27;66.92
12077;BME280;12420;42.676;23.262;2022-08-27T07:02:31;94352.31;;;24.40;68.31
12077;BME280;12420;42.676;23.262;2022-08-27T07:05:00;94338.50;;;23.93;69.70
12077;BME280;12420;42.676;23.262;2022-08-27T07:07:27;94353.38;;;23.94;68.77
12077;BME280;12420;42.676;23.262;2022-08-27T07:09:59;94347.03;;;24.21;67.36
12077;BME280;12420;42.676;23.262;2022-08-27T07:12:26;94335.72;;;24.21;68.48
12077;BME280;12420;42.676;23.262;2022-08-27T07:14:53;94349.13;;;24.34;68.36
12077;BME280;12420;42.676;23.262;2022-08-27T07:17:19;94347.59;;;24.45;69.09
12077;BME280;12420;42.676;23.262;2022-08-27T07:19:46;94325.91;;;24.50;69.66
12077;BME280;12420;42.676;23.262;2022-08-27T07:22:13;94345.41;;;24.71;67.46
12077;BME280;12420;42.676;23.262;2022-08-27T07:24:40;94331.78;;;24.67;65.04
12077;BME280;12420;42.676;23.262;2022-08-27T07:27:08;94340.88;;;24.80;63.99
12077;BME280;12420;42.676;23.262;2022-08-27T07:29:35;94354.19;;;24.91;66.04
12077;BME280;12420;42.676;23.262;2022-08-27T07:32:02;94329.78;;;24.84;64.90
12077;BME280;12420;42.676;23.262;2022-08-27T07:34:29;94346.63;;;24.96;66.33
12077;BME280;12420;42.676;23.262;2022-08-27T07:36:56;94358.25;;;25.29;62.51
12077;BME280;12420;42.676;23.262;2022-08-27T07:39:27;94339.25;;;25.18;65.35
12077;BME280;12420;42.676;23.262;2022-08-27T07:41:57;94367.75;;;25.36;64.20
12077;BME280;12420;42.676;23.262;2022-08-27T07:44:43;94364.56;;;25.44;61.90
12077;BME280;12420;42.676;23.262;2022-08-27T07:47:10;94365.34;;;25.44;62.23
12077;BME280;12420;42.676;23.262;2022-08-27T07:49:37;94368.34;;;25.48;62.45
12077;BME280;12420;42.676;23.262;2022-08-27T07:52:04;94349.50;;;25.39;61.75
12077;BME280;12420;42.676;23.262;2022-08-27T07:54:31;94361.16;;;25.61;62.30
12077;BME280;12420;42.676;23.262;2022-08-27T07:56:58;94372.72;;;25.81;62.67
12077;BME280;12420;42.676;23.262;2022-08-27T07:59:25;94368.34;;;25.78;61.20
12077;BME280;12420;42.676;23.262;2022-08-27T08:01:55;94370.31;;;25.89;62.97
12077;BME280;12420;42.676;23.262;2022-08-27T08:04:22;94358.25;;;25.89;61.35
12077;BME280;12420;42.676;23.262;2022-08-27T08:06:49;94371.59;;;26.18;62.08
12077;BME280;12420;42.676;23.262;2022-08-27T08:09:16;94365.66;;;26.12;59.54
12077;BME280;12420;42.676;23.262;2022-08-27T08:11:43;94358.91;;;26.03;59.97
12077;BME280;12420;42.676;23.262;2022-08-27T08:14:09;94374.38;;;26.16;58.51
12077;BME280;12420;42.676;23.262;2022-08-27T08:16:36;94373.09;;;26.19;58.46
12077;BME280;12420;42.676;23.262;2022-08-27T08:19:07;94361.03;;;26.18;57.37
12077;BME280;12420;42.676;23.262;2022-08-27T08:21:36;94363.75;;;26.16;57.51
12077;BME280;12420;42.676;23.262;2022-08-27T08:24:05;94364.69;;;26.21;59.43
12077;BME280;12420;42.676;23.262;2022-08-27T08:26:35;94366.69;;;26.34;56.75
12077;BME280;12420;42.676;23.262;2022-08-27T08:29:08;94345.09;;;26.27;56.29
12077;BME280;12420;42.676;23.262;2022-08-27T08:31:35;94361.13;;;26.52;55.11
12077;BME280;12420;42.676;23.262;2022-08-27T08:34:02;94352.03;;;26.56;55.61
12077;BME280;12420;42.676;23.262;2022-08-27T08:36:42;94343.63;;;26.58;55.53
12077;BME280;12420;42.676;23.262;2022-08-27T08:39:09;94348.09;;;26.47;55.13
12077;BME280;12420;42.676;23.262;2022-08-27T08:41:39;94357.63;;;26.70;55.33
12077;BME280;12420;42.676;23.262;2022-08-27T08:44:13;94361.63;;;26.80;55.90
12077;BME280;12420;42.676;23.262;2022-08-27T08:46:47;94357.22;;;26.93;54.50
12077;BME280;12420;42.676;23.262;2022-08-27T08:49:28;94349.75;;;27.02;54.32
12077;BME280;12420;42.676;23.262;2022-08-27T08:52:09;94353.69;;;27.11;54.26
12077;BME280;12420;42.676;23.262;2022-08-27T08:54:39;94357.59;;;27.19;53.43
12077;BME280;12420;42.676;23.262;2022-08-27T08:57:14;94354.22;;;27.23;54.07
12077;BME280;12420;42.676;23.262;2022-08-27T08:59:46;94352.59;;;27.18;49.77
12077;BME280;12420;42.676;23.262;2022-08-27T09:02:19;94351.06;;;27.33;49.49
12077;BME280;12420;42.676;23.262;2022-08-27T09:04:46;94352.94;;;27.44;51.01
12077;BME280;12420;42.676;23.262;2022-08-27T09:07:19;94350.50;;;27.54;49.51
12077;BME280;12420;42.676;23.262;2022-08-27T09:09:59;94346.13;;;27.51;50.51
12077;BME280;12420;42.676;23.262;2022-08-27T09:12:39;94355.47;;;27.71;48.27
12077;BME280;12420;42.676;23.262;2022-08-27T09:15:11;94315.09;;;27.57;48.63
12077;BME280;12420;42.676;23.262;2022-08-27T09:17:39;94331.63;;;27.81;47.79
12077;BME280;12420;42.676;23.262;2022-08-27T09:20:07;94353.81;;;28.02;43.36
12077;BME280;12420;42.676;23.262;2022-08-27T09:22:46;94320.53;;;27.87;45.05
12077;BME280;12420;42.676;23.262;2022-08-27T09:25:20;94341.94;;;28.08;45.28
12077;BME280;12420;42.676;23.262;2022-08-27T09:27:55;94348.00;;;28.18;44.84
12077;BME280;12420;42.676;23.262;2022-08-27T09:30:27;94343.28;;;28.25;43.02
12077;BME280;12420;42.676;23.262;2022-08-27T09:32:57;94289.63;;;27.97;44.59
12077;BME280;12420;42.676;23.262;2022-08-27T09:35:27;94339.06;;;28.26;43.00
12077;BME280;12420;42.676;23.262;2022-08-27T09:37:55;94332.03;;;28.29;42.24
12077;BME280;12420;42.676;23.262;2022-08-27T09:40:27;94340.72;;;28.51;43.59
12077;BME280;12420;42.676;23.262;2022-08-27T09:43:03;94335.81;;;28.53;40.72
12077;BME280;12420;42.676;23.262;2022-08-27T09:45:35;94333.34;;;28.64;40.90
12077;BME280;12420;42.676;23.262;2022-08-27T09:48:13;94300.84;;;28.51;41.42
12077;BME280;12420;42.676;23.262;2022-08-27T09:50:47;94318.00;;;28.73;38.80
12077;BME280;12420;42.676;23.262;2022-08-27T09:53:19;94347.19;;;28.93;38.21
12077;BME280;12420;42.676;23.262;2022-08-27T09:55:49;94347.47;;;29.02;38.13
12077;BME280;12420;42.676;23.262;2022-08-27T09:58:23;94337.78;;;29.09;36.53
12077;BME280;12420;42.676;23.262;2022-08-27T10:01:06;94314.34;;;28.90;36.11
12077;BME280;12420;42.676;23.262;2022-08-27T10:03:42;94318.31;;;29.03;34.42
12077;BME280;12420;42.676;23.262;2022-08-27T10:06:09;94338.44;;;29.29;33.77
12077;BME280;12420;42.676;23.262;2022-08-27T10:08:40;94303.78;;;29.15;34.53
12077;BME280;12420;42.676;23.262;2022-08-27T10:11:10;94323.97;;;29.23;36.08
12077;BME280;12420;42.676;23.262;2022-08-27T10:13:47;94329.09;;;29.27;37.53
12077;BME280;12420;42.676;23.262;2022-08-27T10:16:38;94328.03;;;29.38;37.44
12077;BME280;12420;42.676;23.262;2022-08-27T10:19:17;94325.06;;;29.34;35.60
12077;BME280;12420;42.676;23.262;2022-08-27T10:21:54;94324.06;;;29.47;38.16
12077;BME280;12420;42.676;23.262;2022-08-27T10:24:34;94326.50;;;29.35;34.93
12077;BME280;12420;42.676;23.262;2022-08-27T10:27:15;94304.19;;;29.27;34.79
12077;BME280;12420;42.676;23.262;2022-08-27T10:29:52;94319.94;;;29.52;36.71
12077;BME280;12420;42.676;23.262;2022-08-27T10:32:33;94310.72;;;29.54;36.27
12077;BME280;12420;42.676;23.262;2022-08-27T10:35:08;94332.56;;;29.67;34.30
12077;BME280;12420;42.676;23.262;2022-08-27T10:37:47;94320.28;;;29.62;34.38
12077;BME280;12420;42.676;23.262;2022-08-27T10:40:24;94313.84;;;29.62;34.21
12077;BME280;12420;42.676;23.262;2022-08-27T10:42:58;94326.13;;;29.67;34.68
12077;BME280;12420;42.676;23.262;2022-08-27T10:45:38;94324.19;;;29.73;34.01
12077;BME280;12420;42.676;23.262;2022-08-27T10:48:17;94312.59;;;29.45;32.68
12077;BME280;12420;42.676;23.262;2022-08-27T10:50:54;94314.44;;;29.58;33.58
12077;BME280;12420;42.676;23.262;2022-08-27T10:53:27;94326.19;;;29.25;32.86
12077;BME280;12420;42.676;23.262;2022-08-27T10:56:08;94319.56;;;29.40;33.22
12077;BME280;12420;42.676;23.262;2022-08-27T10:59:02;94319.16;;;29.50;32.63
12077;BME280;12420;42.676;23.262;2022-08-27T11:01:42;94326.91;;;29.47;32.54
12077;BME280;12420;42.676;23.262;2022-08-27T11:04:23;94306.41;;;29.31;32.91
12077;BME280;12420;42.676;23.262;2022-08-27T11:07:07;94316.38;;;29.52;32.76
12077;BME280;12420;42.676;23.262;2022-08-27T11:09:44;94304.66;;;29.41;32.47
12077;BME280;12420;42.676;23.262;2022-08-27T11:12:20;94288.91;;;29.40;32.07
12077;BME280;12420;42.676;23.262;2022-08-27T11:14:56;94314.56;;;29.62;31.51
12077;BME280;12420;42.676;23.262;2022-08-27T11:17:32;94312.78;;;29.73;32.01
12077;BME280;12420;42.676;23.262;2022-08-27T11:20:10;94301.50;;;29.77;31.73
12077;BME280;12420;42.676;23.262;2022-08-27T11:22:43;94306.75;;;29.85;30.94
12077;BME280;12420;42.676;23.262;2022-08-27T11:25:32;94304.44;;;29.79;30.39
12077;BME280;12420;42.676;23.262;2022-08-27T11:28:03;94293.13;;;29.83;29.79
12077;BME280;12420;42.676;23.262;2022-08-27T11:30:37;94303.34;;;29.91;31.43
12077;BME280;12420;42.676;23.262;2022-08-27T11:33:13;94279.63;;;29.62;31.46
12077;BME280;12420;42.676;23.262;2022-08-27T11:35:51;94300.00;;;29.74;31.17
12077;BME280;12420;42.676;23.262;2022-08-27T11:38:39;94283.13;;;29.82;31.07
12077;BME280;12420;42.676;23.262;2022-08-27T11:41:18;94242.91;;;29.28;31.68
12077;BME280;12420;42.676;23.262;2022-08-27T11:43:51;94293.50;;;29.72;31.46
12077;BME280;12420;42.676;23.262;2022-08-27T11:46:36;94263.19;;;29.38;31.18
12077;BME280;12420;42.676;23.262;2022-08-27T11:52:02;94292.88;;;29.75;30.70
12077;BME280;12420;42.676;23.262;2022-08-27T11:54:43;94287.63;;;29.90;30.96
12077;BME280;12420;42.676;23.262;2022-08-27T11:57:15;94293.75;;;30.04;29.67
12077;BME280;12420;42.676;23.262;2022-08-27T11:59:46;94278.09;;;30.05;30.08
12077;BME280;12420;42.676;23.262;2022-08-27T12:02:21;94275.56;;;30.17;29.62
12077;BME280;12420;42.676;23.262;2022-08-27T12:05:09;94275.69;;;30.21;30.19
12077;BME280;12420;42.676;23.262;2022-08-27T12:07:50;94274.84;;;30.41;29.24
12077;BME280;12420;42.676;23.262;2022-08-27T12:10:41;94275.16;;;30.53;28.82
12077;BME280;12420;42.676;23.262;2022-08-27T12:13:18;94274.56;;;30.31;28.42
12077;BME280;12420;42.676;23.262;2022-08-27T12:16:10;94270.69;;;30.46;28.42
12077;BME280;12420;42.676;23.262;2022-08-27T12:18:51;94254.41;;;30.24;28.32
12077;BME280;12420;42.676;23.262;2022-08-27T12:21:32;94247.34;;;30.27;29.03
12077;BME280;12420;42.676;23.262;2022-08-27T12:27:26;94269.50;;;30.55;29.93
12077;BME280;12420;42.676;23.262;2022-08-27T12:30:00;94220.13;;;30.24;29.17
12077;BME280;12420;42.676;23.262;2022-08-27T12:32:32;94258.41;;;30.67;28.50
12077;BME280;12420;42.676;23.262;2022-08-27T12:35:13;94250.94;;;30.54;28.80
12077;BME280;12420;42.676;23.262;2022-08-27T12:37:49;94233.16;;;30.58;28.76
12077;BME280;12420;42.676;23.262;2022-08-27T12:40:28;94245.75;;;30.75;29.07
12077;BME280;12420;42.676;23.262;2022-08-27T12:43:09;94278.72;;;31.06;29.63
12077;BME280;12420;42.676;23.262;2022-08-27T12:45:43;94253.78;;;31.08;28.39
12077;BME280;12420;42.676;23.262;2022-08-27T12:48:35;94221.00;;;30.83;29.36
12077;BME280;12420;42.676;23.262;2022-08-27T12:51:08;94251.03;;;31.12;28.50
12077;BME280;12420;42.676;23.262;2022-08-27T12:54:21;94247.13;;;31.00;28.72
12077;BME280;12420;42.676;23.262;2022-08-27T12:56:52;94255.13;;;31.05;29.78
12077;BME280;12420;42.676;23.262;2022-08-27T12:59:45;94243.84;;;31.11;30.34
12077;BME280;12420;42.676;23.262;2022-08-27T13:02:48;94246.81;;;31.15;29.75
12077;BME280;12420;42.676;23.262;2022-08-27T13:05:24;94250.19;;;31.08;28.88
12077;BME280;12420;42.676;23.262;2022-08-27T13:07:52;94247.34;;;31.08;29.70
12077;BME280;12420;42.676;23.262;2022-08-27T13:10:26;94249.53;;;31.09;27.89
12077;BME280;12420;42.676;23.262;2022-08-27T13:13:03;94242.53;;;31.17;29.00
12077;BME280;12420;42.676;23.262;2022-08-27T13:15:30;94242.88;;;31.31;27.82
12077;BME280;12420;42.676;23.262;2022-08-27T13:18:07;94239.81;;;31.51;27.07